Terminal Aerodrome Forecast
Issued by NWS

Home | Current Version | Previous Version | Text Only | Print | Product List | Glossary On
Versions: 1 2 3 4 5 6 7 8 9 10 11 12 13 14
000
FTUS45 KREV 250525
TAFMMH
TAF
KMMH 250525Z 2506/2606 VRB04KT P6SM SCT060 BKN120
     FM251600 13006KT P6SM SCT050 SCT120
     FM252000 26008G16KT P6SM VCSH SCT060 BKN120
     FM260200 30011G19KT P6SM SCT060 SCT120 BKN180
     FM260500 32008KT P6SM SCT120 SCT180=

USA.gov is the U.S. government's official web portal to all federal, state and local government web resources and services.